Adaven, Nevada
Current Conditions -  °F | °C
As of 2:56 PM on Wednesday 22 Oct 2014 (Local Time) from KTPH Reporting Station
Clear Clear  
Wind Chill: 68°   Ceiling: Unl
Heat Index: 68°   Visibility: 10mi
Dew Point: 16°   Wind: 7mph
Humidity: 14%   Direction: 170°S
Pressure: 30.14"   Gusts: NA
Location:  38.13°N, 115.6°W
Report Text: KTPH 222156Z AUTO 17006KT 10SM CLR 20/M09 A3014 RMK AO2 SLP168 T02001089
Loading
Personal Weather Stations






























Interactive Weather Map New forecast layout! Learn more

10-Day Weather Forecast

Advertisements
Track Severe Weather on mobile